Time;durP1;ratioP1;P1;durP2;ratioP2;P2;SDS_P1;SDS_P2;PMS_P1;PMS_P2;Temp;Humidity;BMP_temperature;BMP_pressure;BME280_temperature;BME280_humidity;BME280_pressure;Samples;Min_cycle;Max_cycle;Signal;HPM_P1;HPM_P2
2022/07/02 00:00:44;;;;;;;10.73;5.15;;;;;;;;;;5029466;28;96420;-73
2022/07/02 00:03:10;;;;;;;10.65;4.90;;;;;;;;;;5025305;27;97235;-74
2022/07/02 00:05:44;;;;;;;12.27;5.78;;;;;;;;;;5031452;27;95869;-74
2022/07/02 00:08:11;;;;;;;7.95;4.90;;;;;;;;;;5049317;27;97166;-73
2022/07/02 00:10:38;;;;;;;9.45;5.38;;;;;;;;;;5037615;27;96062;-74
2022/07/02 00:13:05;;;;;;;9.68;5.47;;;;;;;;;;5028786;27;95877;-74
2022/07/02 00:15:33;;;;;;;14.70;5.38;;;;;;;;;;5027934;27;97651;-74
2022/07/02 00:17:59;;;;;;;10.23;5.40;;;;;;;;;;5026532;28;95654;-74
2022/07/02 00:20:26;;;;;;;14.35;5.28;;;;;;;;;;5026272;28;95891;-74
2022/07/02 00:22:53;;;;;;;10.18;5.28;;;;;;;;;;5035079;27;97631;-74
2022/07/02 00:25:19;;;;;;;17.27;6.22;;;;;;;;;;5030956;27;95275;-73
2022/07/02 00:27:45;;;;;;;11.38;5.75;;;;;;;;;;5027211;28;95731;-73
2022/07/02 00:30:12;;;;;;;13.05;6.05;;;;;;;;;;5028508;28;95366;-74
2022/07/02 00:32:39;;;;;;;10.10;6.15;;;;;;;;;;5031394;27;96802;-74
2022/07/02 00:35:13;;;;;;;9.70;6.35;;;;;;;;;;5007136;28;96907;-73
2022/07/02 00:37:39;;;;;;;13.50;6.10;;;;;;;;;;5028365;28;95295;-74
2022/07/02 00:40:06;;;;;;;21.05;6.32;;;;;;;;;;5028229;28;96473;-73
2022/07/02 00:42:34;;;;;;;9.95;6.03;;;;;;;;;;5028460;27;97314;-73
2022/07/02 00:45:00;;;;;;;8.85;5.97;;;;;;;;;;5025031;28;96093;-74
2022/07/02 00:47:27;;;;;;;10.20;5.85;;;;;;;;;;5029882;28;96922;-74
2022/07/02 00:49:53;;;;;;;11.85;6.18;;;;;;;;;;5027956;27;95827;-73
2022/07/02 00:52:19;;;;;;;11.82;6.50;;;;;;;;;;5029370;27;96807;-74
2022/07/02 00:54:46;;;;;;;9.57;5.93;;;;;;;;;;5046629;27;97433;-74
2022/07/02 00:57:12;;;;;;;10.43;6.05;;;;;;;;;;5028967;28;96185;-74
2022/07/02 00:59:40;;;;;;;10.98;6.22;;;;;;;;;;5031256;28;96611;-74
2022/07/02 01:02:06;;;;;;;12.50;7.18;;;;;;;;;;5031001;28;97335;-73
2022/07/02 01:04:34;;;;;;;9.60;6.38;;;;;;;;;;5037043;27;96592;-73
2022/07/02 01:07:02;;;;;;;10.57;6.55;;;;;;;;;;5030186;27;96823;-72
2022/07/02 01:12:21;;;;;;;15.60;6.80;;;;;;;;;;5014962;28;96893;-73
2022/07/02 01:14:47;;;;;;;9.63;6.30;;;;;;;;;;5046108;27;96129;-74
2022/07/02 01:17:14;;;;;;;11.77;6.65;;;;;;;;;;5028769;27;95342;-73
2022/07/02 01:19:40;;;;;;;9.65;6.88;;;;;;;;;;5031172;27;96997;-73
2022/07/02 01:22:18;;;;;;;15.65;7.90;;;;;;;;;;5017482;28;96098;-74
2022/07/02 01:24:45;;;;;;;11.18;7.10;;;;;;;;;;5030677;28;95635;-73
2022/07/02 01:27:12;;;;;;;13.55;7.63;;;;;;;;;;5037269;27;96780;-73
2022/07/02 01:29:38;;;;;;;12.70;8.00;;;;;;;;;;5039784;27;96801;-73
2022/07/02 01:32:05;;;;;;;14.32;7.88;;;;;;;;;;5034466;28;95451;-73
2022/07/02 01:34:37;;;;;;;12.68;8.07;;;;;;;;;;5030187;28;97198;-73
2022/07/02 01:37:04;;;;;;;12.95;8.65;;;;;;;;;;5033571;27;95401;-73
2022/07/02 01:39:30;;;;;;;13.50;8.60;;;;;;;;;;5037980;27;95562;-73
2022/07/02 01:41:57;;;;;;;12.68;8.75;;;;;;;;;;5030315;28;96453;-73
2022/07/02 01:44:23;;;;;;;12.15;8.68;;;;;;;;;;5030045;28;95757;-74
2022/07/02 01:46:49;;;;;;;13.75;8.93;;;;;;;;;;5019008;27;96845;-73
2022/07/02 01:49:16;;;;;;;13.68;9.93;;;;;;;;;;5027164;28;98295;-73
2022/07/02 01:51:42;;;;;;;16.45;9.82;;;;;;;;;;5030526;28;95743;-73
2022/07/02 01:54:08;;;;;;;13.40;9.10;;;;;;;;;;5033921;28;96664;-73
2022/07/02 01:56:35;;;;;;;18.23;10.27;;;;;;;;;;5023482;27;96897;-73
2022/07/02 01:59:01;;;;;;;16.27;10.07;;;;;;;;;;5031699;27;96816;-73
2022/07/02 02:01:28;;;;;;;13.95;10.32;;;;;;;;;;5028588;28;96498;-72
2022/07/02 02:03:54;;;;;;;20.08;9.70;;;;;;;;;;5029721;28;95947;-73
2022/07/02 02:06:21;;;;;;;15.43;9.40;;;;;;;;;;5024682;27;96753;-73
2022/07/02 02:08:47;;;;;;;16.20;10.25;;;;;;;;;;5025690;28;97414;-73
2022/07/02 02:11:14;;;;;;;15.05;10.20;;;;;;;;;;5030312;28;95526;-73
2022/07/02 02:13:40;;;;;;;13.93;9.82;;;;;;;;;;5030359;28;97851;-73
2022/07/02 02:16:06;;;;;;;15.85;9.32;;;;;;;;;;5031648;27;97344;-73
2022/07/02 02:18:33;;;;;;;17.70;9.20;;;;;;;;;;5030105;28;96503;-74
2022/07/02 02:20:59;;;;;;;16.80;9.50;;;;;;;;;;5030290;28;97571;-73
2022/07/02 02:23:26;;;;;;;18.85;9.50;;;;;;;;;;5011119;28;95284;-73
2022/07/02 02:25:52;;;;;;;17.95;9.57;;;;;;;;;;5031923;27;96880;-73
2022/07/02 02:28:19;;;;;;;15.07;9.52;;;;;;;;;;5030748;27;97407;-73
2022/07/02 02:30:45;;;;;;;12.43;9.00;;;;;;;;;;5029942;28;96474;-74
2022/07/02 02:33:11;;;;;;;19.23;9.63;;;;;;;;;;5032292;27;96826;-73
2022/07/02 02:35:37;;;;;;;18.67;10.20;;;;;;;;;;5052655;27;97290;-73
2022/07/02 02:38:04;;;;;;;16.30;10.40;;;;;;;;;;5018102;27;96902;-73
2022/07/02 02:40:30;;;;;;;14.77;10.75;;;;;;;;;;5008905;28;97344;-74
2022/07/02 02:42:56;;;;;;;19.45;9.73;;;;;;;;;;5020441;27;97052;-73
2022/07/02 02:45:23;;;;;;;17.77;10.55;;;;;;;;;;5049981;27;96759;-73
2022/07/02 02:47:49;;;;;;;17.08;10.88;;;;;;;;;;5036072;27;97302;-74
2022/07/02 02:50:15;;;;;;;14.00;10.13;;;;;;;;;;5028757;28;95401;-73
2022/07/02 02:52:42;;;;;;;15.43;10.32;;;;;;;;;;5027497;27;96653;-73
2022/07/02 02:55:08;;;;;;;17.52;10.20;;;;;;;;;;5046087;27;98215;-73
2022/07/02 02:57:34;;;;;;;14.15;10.48;;;;;;;;;;5044845;27;96778;-73
2022/07/02 03:00:01;;;;;;;18.40;10.20;;;;;;;;;;5029281;28;97558;-73
2022/07/02 03:02:27;;;;;;;15.93;11.48;;;;;;;;;;5026257;28;96049;-72
2022/07/02 03:04:53;;;;;;;15.13;10.25;;;;;;;;;;5025930;28;96912;-73
2022/07/02 03:07:20;;;;;;;14.75;10.35;;;;;;;;;;5026189;27;97396;-73
2022/07/02 03:09:46;;;;;;;14.30;9.90;;;;;;;;;;5029169;28;95401;-74
2022/07/02 03:12:13;;;;;;;18.27;10.13;;;;;;;;;;5029589;28;96916;-73
2022/07/02 03:14:39;;;;;;;15.35;10.10;;;;;;;;;;5022035;28;97341;-74
2022/07/02 03:17:06;;;;;;;14.85;9.48;;;;;;;;;;5034981;27;95683;-73
2022/07/02 03:19:33;;;;;;;15.05;10.02;;;;;;;;;;5012750;28;96110;-74
2022/07/02 03:21:59;;;;;;;19.08;9.75;;;;;;;;;;5008838;28;95349;-73
2022/07/02 03:24:25;;;;;;;13.23;9.50;;;;;;;;;;4991155;28;96798;-73
2022/07/02 03:26:52;;;;;;;13.65;9.52;;;;;;;;;;5025973;27;97946;-73
2022/07/02 03:29:23;;;;;;;15.63;9.88;;;;;;;;;;5026519;28;95596;-73
2022/07/02 03:31:49;;;;;;;14.93;9.75;;;;;;;;;;5029641;28;97314;-73
2022/07/02 03:34:15;;;;;;;14.48;8.88;;;;;;;;;;5035391;27;97202;-72
2022/07/02 03:36:42;;;;;;;19.52;9.73;;;;;;;;;;5048775;27;95441;-74
2022/07/02 03:39:08;;;;;;;13.82;9.20;;;;;;;;;;5032059;27;96100;-74
2022/07/02 03:41:35;;;;;;;15.23;8.90;;;;;;;;;;5031953;28;97835;-74
2022/07/02 03:44:01;;;;;;;13.48;9.07;;;;;;;;;;5030105;27;97622;-74
2022/07/02 03:46:28;;;;;;;17.75;9.23;;;;;;;;;;5048852;27;97907;-73
2022/07/02 03:48:54;;;;;;;12.00;8.82;;;;;;;;;;5017177;28;95397;-74
2022/07/02 03:51:21;;;;;;;17.30;9.05;;;;;;;;;;5028463;28;97145;-73
2022/07/02 03:53:48;;;;;;;16.90;9.27;;;;;;;;;;5027467;27;96823;-74
2022/07/02 03:56:15;;;;;;;12.00;8.63;;;;;;;;;;5045489;27;95918;-74
2022/07/02 03:58:41;;;;;;;14.00;8.40;;;;;;;;;;5037957;27;97461;-74
2022/07/02 04:01:08;;;;;;;16.58;9.00;;;;;;;;;;5008859;28;98080;-74
2022/07/02 04:03:35;;;;;;;13.48;8.35;;;;;;;;;;5030861;28;95380;-74
2022/07/02 04:06:02;;;;;;;14.68;7.93;;;;;;;;;;5029703;27;96945;-74
2022/07/02 04:08:28;;;;;;;12.43;8.68;;;;;;;;;;5042620;27;95893;-74
2022/07/02 04:10:55;;;;;;;16.05;8.20;;;;;;;;;;5025394;28;98769;-73
2022/07/02 04:13:21;;;;;;;10.57;7.40;;;;;;;;;;5028390;28;97294;-73
2022/07/02 04:15:48;;;;;;;11.48;7.15;;;;;;;;;;5028329;28;95465;-73
2022/07/02 04:18:14;;;;;;;11.10;7.32;;;;;;;;;;5043167;27;96735;-73
2022/07/02 04:20:41;;;;;;;11.00;7.63;;;;;;;;;;5008938;28;98167;-73
2022/07/02 04:23:07;;;;;;;14.25;7.38;;;;;;;;;;5027378;28;95427;-73
2022/07/02 04:25:34;;;;;;;14.65;7.53;;;;;;;;;;5031744;27;97462;-73
2022/07/02 04:28:00;;;;;;;15.35;7.25;;;;;;;;;;5046239;27;95238;-74
2022/07/02 04:30:27;;;;;;;9.98;6.78;;;;;;;;;;5034741;27;97030;-74
2022/07/02 04:32:53;;;;;;;11.02;6.80;;;;;;;;;;5030241;28;97611;-74
2022/07/02 04:35:20;;;;;;;11.40;6.80;;;;;;;;;;5013074;28;96295;-74
2022/07/02 04:37:47;;;;;;;10.40;6.72;;;;;;;;;;5024809;27;96794;-73
2022/07/02 04:40:13;;;;;;;10.48;6.78;;;;;;;;;;5037863;27;98276;-74
2022/07/02 04:42:40;;;;;;;11.80;7.28;;;;;;;;;;5046032;27;95178;-74
2022/07/02 04:45:06;;;;;;;16.20;7.50;;;;;;;;;;5033673;28;97150;-74
2022/07/02 04:47:33;;;;;;;9.65;6.53;;;;;;;;;;5031494;28;95385;-73
2022/07/02 04:49:59;;;;;;;13.73;7.22;;;;;;;;;;5030556;28;96095;-73
2022/07/02 04:52:26;;;;;;;15.95;7.80;;;;;;;;;;5025363;27;97717;-74
2022/07/02 04:54:52;;;;;;;18.45;6.70;;;;;;;;;;5030010;28;95486;-74
2022/07/02 19:42:03;;;;;;;7.78;2.00;;;;;;;;;;4979999;27;1337462;-74
2022/07/02 19:44:30;;;;;;;5.50;1.80;;;;;;;;;;5008116;28;96894;-75
2022/07/02 19:46:56;;;;;;;4.40;1.85;;;;;;;;;;5003478;28;95732;-75
2022/07/02 19:49:23;;;;;;;3.13;1.60;;;;;;;;;;5004683;28;97234;-75
2022/07/02 19:51:49;;;;;;;4.00;1.40;;;;;;;;;;4987620;28;98038;-75
2022/07/02 19:54:16;;;;;;;8.32;1.80;;;;;;;;;;5008246;28;96129;-75
2022/07/02 19:56:42;;;;;;;2.95;1.50;;;;;;;;;;4986651;28;97370;-75
2022/07/02 19:59:09;;;;;;;4.35;1.60;;;;;;;;;;4984011;28;97640;-76
2022/07/02 20:01:39;;;;;;;6.50;1.70;;;;;;;;;;4988987;28;96041;-75
2022/07/02 20:04:06;;;;;;;4.05;1.92;;;;;;;;;;5004111;28;96738;-74
2022/07/02 20:06:32;;;;;;;5.10;2.10;;;;;;;;;;4993473;28;96088;-75
2022/07/02 20:09:01;;;;;;;7.47;1.73;;;;;;;;;;5023079;28;97435;-76
2022/07/02 20:11:28;;;;;;;3.90;1.60;;;;;;;;;;5023330;28;97921;-76
2022/07/02 20:13:55;;;;;;;4.70;1.83;;;;;;;;;;5003287;28;95743;-75
2022/07/02 20:16:22;;;;;;;5.15;1.90;;;;;;;;;;5003845;28;97475;-76
2022/07/02 20:18:49;;;;;;;5.05;2.20;;;;;;;;;;5003647;28;97999;-75
2022/07/02 20:21:16;;;;;;;7.38;2.10;;;;;;;;;;5001329;28;96100;-75
2022/07/02 20:23:42;;;;;;;8.70;2.20;;;;;;;;;;4989068;28;97125;-73
2022/07/02 20:26:10;;;;;;;6.20;1.83;;;;;;;;;;5004469;28;95411;-75
2022/07/02 20:28:37;;;;;;;3.97;2.00;;;;;;;;;;5005012;28;100423;-75
2022/07/02 20:31:03;;;;;;;4.30;1.80;;;;;;;;;;5003481;28;97723;-75
2022/07/02 20:33:35;;;;;;;5.88;2.17;;;;;;;;;;5003672;28;98207;-75
2022/07/02 20:36:01;;;;;;;6.53;2.00;;;;;;;;;;4990019;28;97493;-75
2022/07/02 20:38:28;;;;;;;8.13;2.40;;;;;;;;;;5006380;28;98050;-75
2022/07/02 20:40:54;;;;;;;8.20;2.58;;;;;;;;;;5008357;28;95448;-74
2022/07/02 20:43:21;;;;;;;11.40;2.13;;;;;;;;;;5003001;28;96811;-73
2022/07/02 20:45:47;;;;;;;5.00;2.63;;;;;;;;;;5007158;28;98072;-75
2022/07/02 20:48:14;;;;;;;10.48;4.88;;;;;;;;;;5004846;28;97374;-74
2022/07/02 20:50:41;;;;;;;12.40;3.88;;;;;;;;;;5008745;28;97953;-73
2022/07/02 20:53:08;;;;;;;10.30;4.80;;;;;;;;;;5000858;28;95374;-74
2022/07/02 20:55:34;;;;;;;9.25;5.50;;;;;;;;;;4984726;28;96511;-73
2022/07/02 20:58:02;;;;;;;8.18;4.60;;;;;;;;;;4986551;28;97740;-74
2022/07/02 21:00:32;;;;;;;10.82;4.18;;;;;;;;;;4974541;28;95281;-73
2022/07/02 21:02:58;;;;;;;9.38;4.00;;;;;;;;;;4973299;28;96930;-73
2022/07/02 21:05:25;;;;;;;7.30;4.22;;;;;;;;;;4990428;28;97955;-73
2022/07/02 21:07:51;;;;;;;7.07;3.80;;;;;;;;;;4994819;28;95579;-73
2022/07/02 21:10:19;;;;;;;6.15;3.80;;;;;;;;;;4990883;28;97711;-73
2022/07/02 21:12:46;;;;;;;4.47;3.10;;;;;;;;;;4991127;28;95456;-74
2022/07/02 21:15:12;;;;;;;6.32;3.33;;;;;;;;;;4989310;28;97391;-74
2022/07/02 21:17:39;;;;;;;4.95;3.17;;;;;;;;;;4992777;28;97641;-74
2022/07/02 21:20:07;;;;;;;16.48;3.97;;;;;;;;;;4991040;28;95138;-74
2022/07/02 21:22:33;;;;;;;22.88;3.92;;;;;;;;;;4990439;28;97655;-73
2022/07/02 21:25:00;;;;;;;8.63;4.68;;;;;;;;;;4980815;28;97667;-74
2022/07/02 21:27:27;;;;;;;10.15;6.22;;;;;;;;;;4970677;28;95976;-74
2022/07/02 21:29:53;;;;;;;20.40;10.43;;;;;;;;;;4956621;28;96757;-74
2022/07/02 21:32:20;;;;;;;16.50;8.15;;;;;;;;;;4981305;28;95286;-73
2022/07/02 21:34:49;;;;;;;13.32;7.75;;;;;;;;;;4991263;28;100012;-74
2022/07/02 21:37:16;;;;;;;11.68;7.47;;;;;;;;;;4990623;28;97846;-73
2022/07/02 21:39:42;;;;;;;14.55;7.32;;;;;;;;;;4990481;28;96229;-73
2022/07/02 21:42:10;;;;;;;11.93;7.65;;;;;;;;;;4989398;28;97560;-73
2022/07/02 21:44:36;;;;;;;12.18;6.90;;;;;;;;;;4972292;28;98006;-73
2022/07/02 21:47:03;;;;;;;10.65;7.07;;;;;;;;;;4990515;28;95301;-74
2022/07/02 21:49:30;;;;;;;11.85;7.25;;;;;;;;;;4990511;28;100778;-74
2022/07/02 21:51:56;;;;;;;11.25;6.90;;;;;;;;;;4993237;28;95838;-74
2022/07/02 21:54:23;;;;;;;14.32;7.22;;;;;;;;;;4982978;28;97321;-74
2022/07/02 21:56:49;;;;;;;15.27;9.13;;;;;;;;;;4969959;28;97959;-74
2022/07/02 21:59:16;;;;;;;14.75;8.98;;;;;;;;;;4982520;28;96682;-73
2022/07/02 22:01:46;;;;;;;26.13;7.88;;;;;;;;;;4990038;28;97272;-73
2022/07/02 22:04:13;;;;;;;13.25;5.55;;;;;;;;;;4988998;28;97643;-74
2022/07/02 22:06:39;;;;;;;11.30;5.03;;;;;;;;;;4989995;28;95544;-73
2022/07/02 22:09:06;;;;;;;10.95;5.28;;;;;;;;;;4990022;28;97133;-74
2022/07/02 22:11:32;;;;;;;10.02;5.63;;;;;;;;;;4975060;28;97918;-74
2022/07/02 22:13:59;;;;;;;11.52;7.18;;;;;;;;;;4989863;28;97339;-74
2022/07/02 22:16:26;;;;;;;10.02;6.15;;;;;;;;;;4989272;28;98192;-74
2022/07/02 22:18:52;;;;;;;20.92;5.70;;;;;;;;;;4990395;28;95297;-74
2022/07/02 22:21:19;;;;;;;18.05;4.93;;;;;;;;;;4988961;28;96692;-73
2022/07/02 22:23:45;;;;;;;7.20;4.63;;;;;;;;;;4990231;28;97989;-73
2022/07/02 22:26:12;;;;;;;11.75;4.68;;;;;;;;;;4988995;28;95435;-73
2022/07/02 22:28:38;;;;;;;9.60;3.65;;;;;;;;;;4989714;28;96146;-73
2022/07/02 22:31:05;;;;;;;18.98;4.57;;;;;;;;;;4989786;28;97766;-74
2022/07/02 22:33:31;;;;;;;11.90;4.85;;;;;;;;;;4992160;28;97091;-74
2022/07/02 22:35:58;;;;;;;9.18;4.65;;;;;;;;;;4989427;28;97873;-73
2022/07/02 22:38:24;;;;;;;18.50;5.30;;;;;;;;;;4989977;28;95585;-73
2022/07/02 22:40:51;;;;;;;10.43;5.28;;;;;;;;;;4971644;28;97464;-74
2022/07/02 22:43:18;;;;;;;12.82;5.80;;;;;;;;;;4987898;28;97868;-73
2022/07/02 22:45:45;;;;;;;12.18;5.20;;;;;;;;;;4989799;28;95466;-73
2022/07/02 22:48:12;;;;;;;8.45;4.80;;;;;;;;;;4989821;28;97070;-74
2022/07/02 22:50:39;;;;;;;8.82;4.88;;;;;;;;;;4988987;28;98014;-73
2022/07/02 22:53:06;;;;;;;8.68;5.97;;;;;;;;;;4988599;28;96307;-73
2022/07/02 22:55:33;;;;;;;9.65;5.60;;;;;;;;;;4973913;28;97229;-73
2022/07/02 22:58:00;;;;;;;10.50;5.78;;;;;;;;;;4971725;28;95759;-73
2022/07/02 23:00:26;;;;;;;27.00;6.03;;;;;;;;;;4989680;28;97054;-73
2022/07/02 23:02:53;;;;;;;10.27;5.57;;;;;;;;;;4988510;28;98039;-73
2022/07/02 23:05:20;;;;;;;11.43;5.15;;;;;;;;;;4988725;28;95880;-73
2022/07/02 23:07:46;;;;;;;7.32;5.38;;;;;;;;;;4989295;28;97541;-73
2022/07/02 23:10:13;;;;;;;8.07;4.57;;;;;;;;;;4989366;28;97998;-73
2022/07/02 23:12:39;;;;;;;8.55;4.35;;;;;;;;;;4988650;28;96553;-72
2022/07/02 23:15:06;;;;;;;9.30;3.97;;;;;;;;;;4989156;28;97081;-73
2022/07/02 23:17:33;;;;;;;13.05;4.10;;;;;;;;;;4991961;28;97666;-74
2022/07/02 23:20:02;;;;;;;7.43;3.85;;;;;;;;;;4989922;28;96828;-74
2022/07/02 23:22:29;;;;;;;6.25;3.60;;;;;;;;;;4989041;28;97989;-74
2022/07/02 23:24:56;;;;;;;7.50;3.78;;;;;;;;;;4987246;28;95617;-74
2022/07/02 23:27:23;;;;;;;6.50;4.50;;;;;;;;;;4989326;28;97260;-74
2022/07/02 23:29:49;;;;;;;13.68;8.95;;;;;;;;;;4989056;28;98009;-74
2022/07/02 23:32:16;;;;;;;10.43;6.53;;;;;;;;;;4970365;28;95477;-73
2022/07/02 23:34:42;;;;;;;11.13;6.20;;;;;;;;;;4989743;28;96894;-73
2022/07/02 23:37:11;;;;;;;10.07;5.47;;;;;;;;;;4987819;28;98148;-73
2022/07/02 23:39:37;;;;;;;9.40;4.13;;;;;;;;;;4991812;28;95226;-72
2022/07/02 23:42:04;;;;;;;6.20;4.28;;;;;;;;;;4988628;28;98194;-73
2022/07/02 23:44:31;;;;;;;8.90;4.22;;;;;;;;;;4988708;28;96720;-73
2022/07/02 23:46:58;;;;;;;10.60;3.65;;;;;;;;;;4988388;28;97709;-73
2022/07/02 23:49:24;;;;;;;6.15;3.70;;;;;;;;;;4988445;28;97596;-73
2022/07/02 23:51:51;;;;;;;6.68;3.90;;;;;;;;;;4988336;28;95789;-73
2022/07/02 23:54:18;;;;;;;5.75;3.53;;;;;;;;;;4986277;28;97135;-73
2022/07/02 23:56:44;;;;;;;6.35;3.50;;;;;;;;;;4967273;28;97755;-73
2022/07/02 23:59:11;;;;;;;8.05;3.50;;;;;;;;;;4972109;28;95623;-73
